sensor_id;sensor_type;location;lat;lon;timestamp;P1;durP1;ratioP1;P2;durP2;ratioP2
55362;SDS011;41244;49.242;9.060;2023-06-22T00:01:16;8.80;;;6.18;;
55362;SDS011;41244;49.242;9.060;2023-06-22T00:03:42;9.05;;;6.05;;
55362;SDS011;41244;49.242;9.060;2023-06-22T00:06:08;8.30;;;6.88;;
55362;SDS011;41244;49.242;9.060;2023-06-22T00:08:34;7.90;;;6.63;;
55362;SDS011;41244;49.242;9.060;2023-06-22T00:10:59;7.45;;;6.15;;
55362;SDS011;41244;49.242;9.060;2023-06-22T00:13:25;8.02;;;6.35;;
55362;SDS011;41244;49.242;9.060;2023-06-22T00:15:51;9.23;;;6.20;;
55362;SDS011;41244;49.242;9.060;2023-06-22T00:18:17;7.25;;;6.40;;
55362;SDS011;41244;49.242;9.060;2023-06-22T00:20:43;7.85;;;6.32;;
55362;SDS011;41244;49.242;9.060;2023-06-22T00:23:10;7.10;;;6.40;;
55362;SDS011;41244;49.242;9.060;2023-06-22T00:25:37;7.32;;;6.40;;
55362;SDS011;41244;49.242;9.060;2023-06-22T00:28:05;8.18;;;6.65;;
55362;SDS011;41244;49.242;9.060;2023-06-22T00:30:31;7.32;;;6.60;;
55362;SDS011;41244;49.242;9.060;2023-06-22T00:32:57;8.35;;;6.65;;
55362;SDS011;41244;49.242;9.060;2023-06-22T00:35:24;7.78;;;6.65;;
55362;SDS011;41244;49.242;9.060;2023-06-22T00:37:56;6.90;;;6.13;;
55362;SDS011;41244;49.242;9.060;2023-06-22T00:40:26;9.30;;;7.18;;
55362;SDS011;41244;49.242;9.060;2023-06-22T00:42:53;8.65;;;6.93;;
55362;SDS011;41244;49.242;9.060;2023-06-22T00:45:20;6.38;;;5.68;;
55362;SDS011;41244;49.242;9.060;2023-06-22T00:47:47;9.98;;;6.95;;
55362;SDS011;41244;49.242;9.060;2023-06-22T00:50:19;9.55;;;6.90;;
55362;SDS011;41244;49.242;9.060;2023-06-22T00:52:56;9.52;;;6.50;;
55362;SDS011;41244;49.242;9.060;2023-06-22T00:55:23;8.10;;;6.45;;
55362;SDS011;41244;49.242;9.060;2023-06-22T00:57:51;8.18;;;6.38;;
55362;SDS011;41244;49.242;9.060;2023-06-22T01:00:20;7.40;;;6.20;;
55362;SDS011;41244;49.242;9.060;2023-06-22T01:02:49;10.13;;;7.20;;
55362;SDS011;41244;49.242;9.060;2023-06-22T01:05:18;8.07;;;7.32;;
55362;SDS011;41244;49.242;9.060;2023-06-22T01:08:32;8.40;;;7.13;;
55362;SDS011;41244;49.242;9.060;2023-06-22T01:16:19;11.38;;;7.25;;
55362;SDS011;41244;49.242;9.060;2023-06-22T01:18:54;8.68;;;6.93;;
55362;SDS011;41244;49.242;9.060;2023-06-22T01:21:23;8.48;;;7.57;;
55362;SDS011;41244;49.242;9.060;2023-06-22T01:24:14;9.50;;;7.97;;
55362;SDS011;41244;49.242;9.060;2023-06-22T01:29:52;10.18;;;8.35;;
55362;SDS011;41244;49.242;9.060;2023-06-22T01:32:27;10.55;;;7.60;;
55362;SDS011;41244;49.242;9.060;2023-06-22T01:34:58;11.40;;;8.02;;
55362;SDS011;41244;49.242;9.060;2023-06-22T01:37:27;11.27;;;8.05;;
55362;SDS011;41244;49.242;9.060;2023-06-22T01:39:54;12.45;;;8.57;;
55362;SDS011;41244;49.242;9.060;2023-06-22T01:42:21;10.18;;;8.38;;
55362;SDS011;41244;49.242;9.060;2023-06-22T01:44:48;11.73;;;7.97;;
55362;SDS011;41244;49.242;9.060;2023-06-22T01:47:15;10.77;;;8.40;;
55362;SDS011;41244;49.242;9.060;2023-06-22T01:49:41;10.63;;;8.30;;
55362;SDS011;41244;49.242;9.060;2023-06-22T01:52:06;10.45;;;8.32;;
55362;SDS011;41244;49.242;9.060;2023-06-22T01:54:33;8.90;;;7.80;;
55362;SDS011;41244;49.242;9.060;2023-06-22T01:56:58;8.98;;;8.13;;
55362;SDS011;41244;49.242;9.060;2023-06-22T02:05:06;9.32;;;8.43;;
55362;SDS011;41244;49.242;9.060;2023-06-22T02:07:37;9.82;;;8.75;;
55362;SDS011;41244;49.242;9.060;2023-06-22T02:10:10;12.27;;;8.00;;
55362;SDS011;41244;49.242;9.060;2023-06-22T02:12:39;9.32;;;8.25;;
55362;SDS011;41244;49.242;9.060;2023-06-22T02:15:07;9.60;;;7.85;;
55362;SDS011;41244;49.242;9.060;2023-06-22T02:17:35;10.73;;;8.57;;
55362;SDS011;41244;49.242;9.060;2023-06-22T02:20:04;12.07;;;8.27;;
55362;SDS011;41244;49.242;9.060;2023-06-22T02:22:32;11.98;;;8.65;;
55362;SDS011;41244;49.242;9.060;2023-06-22T02:24:58;10.93;;;9.80;;
55362;SDS011;41244;49.242;9.060;2023-06-22T02:27:24;10.82;;;9.30;;
55362;SDS011;41244;49.242;9.060;2023-06-22T02:29:49;9.57;;;8.60;;
55362;SDS011;41244;49.242;9.060;2023-06-22T02:32:15;12.02;;;8.82;;
55362;SDS011;41244;49.242;9.060;2023-06-22T02:34:42;12.25;;;9.55;;
55362;SDS011;41244;49.242;9.060;2023-06-22T02:37:12;10.05;;;9.15;;
55362;SDS011;41244;49.242;9.060;2023-06-22T02:39:40;10.93;;;9.23;;
55362;SDS011;41244;49.242;9.060;2023-06-22T02:42:05;11.98;;;9.40;;
55362;SDS011;41244;49.242;9.060;2023-06-22T02:44:31;11.55;;;10.35;;
55362;SDS011;41244;49.242;9.060;2023-06-22T02:46:57;10.07;;;9.10;;
55362;SDS011;41244;49.242;9.060;2023-06-22T02:49:23;10.80;;;9.02;;
55362;SDS011;41244;49.242;9.060;2023-06-22T02:51:49;11.02;;;9.90;;
55362;SDS011;41244;49.242;9.060;2023-06-22T02:54:15;12.48;;;10.55;;
55362;SDS011;41244;49.242;9.060;2023-06-22T02:56:41;11.38;;;9.55;;
55362;SDS011;41244;49.242;9.060;2023-06-22T02:59:10;11.40;;;9.90;;
55362;SDS011;41244;49.242;9.060;2023-06-22T03:01:36;10.52;;;9.45;;
55362;SDS011;41244;49.242;9.060;2023-06-22T03:04:05;10.98;;;9.93;;
55362;SDS011;41244;49.242;9.060;2023-06-22T03:06:32;9.85;;;8.95;;
55362;SDS011;41244;49.242;9.060;2023-06-22T03:09:02;10.38;;;9.40;;
55362;SDS011;41244;49.242;9.060;2023-06-22T03:11:33;10.85;;;9.75;;
55362;SDS011;41244;49.242;9.060;2023-06-22T03:14:02;10.82;;;9.73;;
55362;SDS011;41244;49.242;9.060;2023-06-22T03:16:28;14.10;;;10.07;;
55362;SDS011;41244;49.242;9.060;2023-06-22T03:18:54;12.63;;;9.25;;
55362;SDS011;41244;49.242;9.060;2023-06-22T03:21:21;11.73;;;10.35;;
55362;SDS011;41244;49.242;9.060;2023-06-22T03:23:48;12.57;;;10.68;;
55362;SDS011;41244;49.242;9.060;2023-06-22T03:26:16;13.35;;;10.27;;
55362;SDS011;41244;49.242;9.060;2023-06-22T03:28:42;10.98;;;9.98;;
55362;SDS011;41244;49.242;9.060;2023-06-22T03:31:08;11.45;;;10.23;;
55362;SDS011;41244;49.242;9.060;2023-06-22T03:33:34;12.05;;;9.80;;
55362;SDS011;41244;49.242;9.060;2023-06-22T03:36:00;13.25;;;10.85;;
55362;SDS011;41244;49.242;9.060;2023-06-22T03:38:26;13.55;;;11.25;;
55362;SDS011;41244;49.242;9.060;2023-06-22T03:40:52;15.27;;;10.80;;
55362;SDS011;41244;49.242;9.060;2023-06-22T03:43:17;12.40;;;10.18;;
55362;SDS011;41244;49.242;9.060;2023-06-22T03:45:43;12.25;;;11.07;;
55362;SDS011;41244;49.242;9.060;2023-06-22T03:48:10;12.18;;;10.77;;
55362;SDS011;41244;49.242;9.060;2023-06-22T03:50:37;11.63;;;10.45;;
55362;SDS011;41244;49.242;9.060;2023-06-22T03:53:02;12.50;;;11.20;;
55362;SDS011;41244;49.242;9.060;2023-06-22T03:55:28;11.45;;;10.30;;
55362;SDS011;41244;49.242;9.060;2023-06-22T03:57:55;12.80;;;10.95;;
55362;SDS011;41244;49.242;9.060;2023-06-22T04:00:22;13.68;;;11.40;;
55362;SDS011;41244;49.242;9.060;2023-06-22T04:02:48;12.43;;;10.98;;
55362;SDS011;41244;49.242;9.060;2023-06-22T04:05:14;12.07;;;10.70;;
55362;SDS011;41244;49.242;9.060;2023-06-22T04:07:42;12.85;;;11.18;;
55362;SDS011;41244;49.242;9.060;2023-06-22T04:10:08;13.63;;;10.90;;
55362;SDS011;41244;49.242;9.060;2023-06-22T04:12:34;14.60;;;11.13;;
55362;SDS011;41244;49.242;9.060;2023-06-22T04:15:00;17.80;;;11.63;;
55362;SDS011;41244;49.242;9.060;2023-06-22T04:17:26;12.93;;;10.85;;
55362;SDS011;41244;49.242;9.060;2023-06-22T04:19:52;13.02;;;11.73;;
55362;SDS011;41244;49.242;9.060;2023-06-22T04:22:17;12.82;;;11.07;;
55362;SDS011;41244;49.242;9.060;2023-06-22T04:24:43;16.02;;;10.95;;
55362;SDS011;41244;49.242;9.060;2023-06-22T04:27:09;13.15;;;11.00;;
55362;SDS011;41244;49.242;9.060;2023-06-22T04:29:35;11.98;;;10.77;;
55362;SDS011;41244;49.242;9.060;2023-06-22T04:32:03;12.52;;;11.18;;
55362;SDS011;41244;49.242;9.060;2023-06-22T04:34:30;14.30;;;10.88;;
55362;SDS011;41244;49.242;9.060;2023-06-22T04:36:56;13.15;;;11.35;;
55362;SDS011;41244;49.242;9.060;2023-06-22T04:39:22;12.73;;;10.32;;
55362;SDS011;41244;49.242;9.060;2023-06-22T04:41:49;12.73;;;10.95;;
55362;SDS011;41244;49.242;9.060;2023-06-22T04:44:18;12.60;;;10.48;;
55362;SDS011;41244;49.242;9.060;2023-06-22T04:46:53;15.77;;;11.50;;
55362;SDS011;41244;49.242;9.060;2023-06-22T04:49:27;11.52;;;10.18;;
55362;SDS011;41244;49.242;9.060;2023-06-22T04:51:57;11.27;;;10.07;;
55362;SDS011;41244;49.242;9.060;2023-06-22T04:54:24;12.80;;;10.25;;
55362;SDS011;41244;49.242;9.060;2023-06-22T04:56:58;10.88;;;9.77;;
55362;SDS011;41244;49.242;9.060;2023-06-22T04:59:28;14.00;;;9.73;;
55362;SDS011;41244;49.242;9.060;2023-06-22T05:01:55;11.10;;;10.00;;
55362;SDS011;41244;49.242;9.060;2023-06-22T05:04:26;10.18;;;9.15;;
55362;SDS011;41244;49.242;9.060;2023-06-22T05:06:53;13.65;;;9.75;;
55362;SDS011;41244;49.242;9.060;2023-06-22T05:09:20;12.10;;;9.75;;
55362;SDS011;41244;49.242;9.060;2023-06-22T05:11:46;13.60;;;9.00;;
55362;SDS011;41244;49.242;9.060;2023-06-22T05:14:12;11.85;;;9.02;;
55362;SDS011;41244;49.242;9.060;2023-06-22T05:16:39;14.10;;;9.48;;
55362;SDS011;41244;49.242;9.060;2023-06-22T05:19:06;11.27;;;8.68;;
55362;SDS011;41244;49.242;9.060;2023-06-22T05:21:32;13.23;;;8.80;;
55362;SDS011;41244;49.242;9.060;2023-06-22T05:23:58;11.15;;;9.48;;
55362;SDS011;41244;49.242;9.060;2023-06-22T05:26:28;10.38;;;9.20;;
55362;SDS011;41244;49.242;9.060;2023-06-22T05:28:56;10.55;;;9.45;;
55362;SDS011;41244;49.242;9.060;2023-06-22T05:31:22;13.55;;;9.25;;
55362;SDS011;41244;49.242;9.060;2023-06-22T05:33:48;14.05;;;8.60;;
55362;SDS011;41244;49.242;9.060;2023-06-22T05:36:16;11.45;;;9.27;;
55362;SDS011;41244;49.242;9.060;2023-06-22T05:38:44;9.95;;;8.73;;
55362;SDS011;41244;49.242;9.060;2023-06-22T05:41:10;14.32;;;10.50;;
55362;SDS011;41244;49.242;9.060;2023-06-22T05:43:36;10.27;;;9.10;;
55362;SDS011;41244;49.242;9.060;2023-06-22T05:46:03;10.90;;;9.85;;
55362;SDS011;41244;49.242;9.060;2023-06-22T05:48:30;12.77;;;10.35;;
55362;SDS011;41244;49.242;9.060;2023-06-22T05:50:55;11.68;;;9.20;;
55362;SDS011;41244;49.242;9.060;2023-06-22T05:53:22;10.23;;;9.23;;
55362;SDS011;41244;49.242;9.060;2023-06-22T05:55:48;10.60;;;9.38;;
55362;SDS011;41244;49.242;9.060;2023-06-22T05:58:14;11.85;;;8.77;;
55362;SDS011;41244;49.242;9.060;2023-06-22T06:00:40;9.68;;;8.68;;
55362;SDS011;41244;49.242;9.060;2023-06-22T06:03:06;9.52;;;8.50;;
55362;SDS011;41244;49.242;9.060;2023-06-22T06:05:33;11.35;;;8.68;;
55362;SDS011;41244;49.242;9.060;2023-06-22T06:08:00;11.13;;;8.88;;
55362;SDS011;41244;49.242;9.060;2023-06-22T06:10:27;10.50;;;8.68;;
55362;SDS011;41244;49.242;9.060;2023-06-22T06:12:54;9.60;;;8.55;;
55362;SDS011;41244;49.242;9.060;2023-06-22T06:15:20;12.35;;;8.55;;
55362;SDS011;41244;49.242;9.060;2023-06-22T06:17:51;13.43;;;9.75;;
55362;SDS011;41244;49.242;9.060;2023-06-22T06:20:18;11.68;;;9.50;;
55362;SDS011;41244;49.242;9.060;2023-06-22T06:22:46;12.45;;;9.82;;
55362;SDS011;41244;49.242;9.060;2023-06-22T06:25:12;10.20;;;9.07;;
55362;SDS011;41244;49.242;9.060;2023-06-22T06:27:42;10.82;;;9.27;;
55362;SDS011;41244;49.242;9.060;2023-06-22T06:30:09;12.55;;;9.55;;
55362;SDS011;41244;49.242;9.060;2023-06-22T06:32:36;12.07;;;8.98;;
55362;SDS011;41244;49.242;9.060;2023-06-22T06:35:04;11.40;;;9.25;;
55362;SDS011;41244;49.242;9.060;2023-06-22T06:37:37;10.32;;;9.23;;
55362;SDS011;41244;49.242;9.060;2023-06-22T06:40:08;10.73;;;9.38;;
55362;SDS011;41244;49.242;9.060;2023-06-22T06:42:37;10.82;;;8.60;;
55362;SDS011;41244;49.242;9.060;2023-06-22T06:45:05;17.02;;;12.45;;
55362;SDS011;41244;49.242;9.060;2023-06-22T06:47:43;13.95;;;12.48;;
55362;SDS011;41244;49.242;9.060;2023-06-22T06:50:09;13.95;;;12.02;;
55362;SDS011;41244;49.242;9.060;2023-06-22T06:52:35;10.55;;;8.63;;
55362;SDS011;41244;49.242;9.060;2023-06-22T06:55:01;11.55;;;8.70;;
55362;SDS011;41244;49.242;9.060;2023-06-22T06:57:29;10.18;;;8.77;;
55362;SDS011;41244;49.242;9.060;2023-06-22T06:59:55;9.80;;;8.50;;
55362;SDS011;41244;49.242;9.060;2023-06-22T07:02:22;10.85;;;8.35;;
55362;SDS011;41244;49.242;9.060;2023-06-22T07:04:48;10.77;;;8.55;;
55362;SDS011;41244;49.242;9.060;2023-06-22T07:07:14;9.82;;;8.65;;
55362;SDS011;41244;49.242;9.060;2023-06-22T07:09:40;12.98;;;9.18;;
55362;SDS011;41244;49.242;9.060;2023-06-22T07:12:06;10.77;;;9.25;;
55362;SDS011;41244;49.242;9.060;2023-06-22T07:14:32;13.13;;;9.15;;
55362;SDS011;41244;49.242;9.060;2023-06-22T07:16:58;11.73;;;9.23;;
55362;SDS011;41244;49.242;9.060;2023-06-22T07:19:24;12.05;;;9.07;;
55362;SDS011;41244;49.242;9.060;2023-06-22T07:21:52;12.10;;;8.93;;
55362;SDS011;41244;49.242;9.060;2023-06-22T07:24:19;9.95;;;9.05;;
55362;SDS011;41244;49.242;9.060;2023-06-22T07:26:48;12.60;;;8.77;;
55362;SDS011;41244;49.242;9.060;2023-06-22T07:29:18;12.57;;;8.90;;
55362;SDS011;41244;49.242;9.060;2023-06-22T07:31:48;12.55;;;9.40;;
55362;SDS011;41244;49.242;9.060;2023-06-22T07:34:16;10.07;;;8.80;;
55362;SDS011;41244;49.242;9.060;2023-06-22T07:36:42;11.80;;;8.75;;
55362;SDS011;41244;49.242;9.060;2023-06-22T07:39:09;9.77;;;8.55;;
55362;SDS011;41244;49.242;9.060;2023-06-22T07:41:34;9.52;;;8.52;;
55362;SDS011;41244;49.242;9.060;2023-06-22T07:44:01;9.25;;;8.00;;
55362;SDS011;41244;49.242;9.060;2023-06-22T07:46:28;13.57;;;8.90;;
55362;SDS011;41244;49.242;9.060;2023-06-22T07:48:55;11.90;;;9.52;;
55362;SDS011;41244;49.242;9.060;2023-06-22T07:51:22;8.70;;;7.80;;
55362;SDS011;41244;49.242;9.060;2023-06-22T07:53:48;9.27;;;7.90;;
55362;SDS011;41244;49.242;9.060;2023-06-22T07:56:14;9.18;;;7.40;;
55362;SDS011;41244;49.242;9.060;2023-06-22T07:58:44;8.20;;;7.20;;
55362;SDS011;41244;49.242;9.060;2023-06-22T08:01:11;10.88;;;7.47;;
55362;SDS011;41244;49.242;9.060;2023-06-22T08:03:37;9.02;;;6.90;;
55362;SDS011;41244;49.242;9.060;2023-06-22T08:06:04;11.52;;;7.50;;
55362;SDS011;41244;49.242;9.060;2023-06-22T08:08:31;11.18;;;6.70;;
55362;SDS011;41244;49.242;9.060;2023-06-22T08:10:56;10.15;;;7.45;;
55362;SDS011;41244;49.242;9.060;2023-06-22T08:13:22;12.02;;;7.75;;
55362;SDS011;41244;49.242;9.060;2023-06-22T08:15:48;8.30;;;6.75;;
55362;SDS011;41244;49.242;9.060;2023-06-22T08:18:14;9.75;;;6.90;;
55362;SDS011;41244;49.242;9.060;2023-06-22T08:20:41;8.38;;;7.32;;
55362;SDS011;41244;49.242;9.060;2023-06-22T08:23:07;9.07;;;7.28;;
55362;SDS011;41244;49.242;9.060;2023-06-22T08:25:33;9.57;;;7.25;;
55362;SDS011;41244;49.242;9.060;2023-06-22T08:28:00;8.18;;;6.88;;
55362;SDS011;41244;49.242;9.060;2023-06-22T08:30:29;9.27;;;6.78;;
55362;SDS011;41244;49.242;9.060;2023-06-22T08:32:55;8.77;;;7.57;;
55362;SDS011;41244;49.242;9.060;2023-06-22T08:35:22;11.73;;;6.80;;
55362;SDS011;41244;49.242;9.060;2023-06-22T08:37:48;7.43;;;6.50;;
55362;SDS011;41244;49.242;9.060;2023-06-22T08:40:21;10.10;;;6.97;;
55362;SDS011;41244;49.242;9.060;2023-06-22T08:42:47;9.40;;;7.45;;
55362;SDS011;41244;49.242;9.060;2023-06-22T08:45:14;9.63;;;6.60;;
55362;SDS011;41244;49.242;9.060;2023-06-22T08:47:41;10.93;;;7.38;;
55362;SDS011;41244;49.242;9.060;2023-06-22T08:50:10;8.60;;;6.40;;
55362;SDS011;41244;49.242;9.060;2023-06-22T08:52:37;9.30;;;6.57;;
55362;SDS011;41244;49.242;9.060;2023-06-22T08:55:06;7.50;;;6.72;;
55362;SDS011;41244;49.242;9.060;2023-06-22T08:57:33;8.63;;;6.55;;
55362;SDS011;41244;49.242;9.060;2023-06-22T08:59:59;17.15;;;6.32;;
55362;SDS011;41244;49.242;9.060;2023-06-22T09:02:25;9.77;;;6.55;;
55362;SDS011;41244;49.242;9.060;2023-06-22T09:04:55;9.13;;;6.68;;
55362;SDS011;41244;49.242;9.060;2023-06-22T09:07:22;8.93;;;6.40;;
55362;SDS011;41244;49.242;9.060;2023-06-22T09:09:49;30.05;;;6.95;;
55362;SDS011;41244;49.242;9.060;2023-06-22T09:12:16;8.50;;;6.70;;
55362;SDS011;41244;49.242;9.060;2023-06-22T09:14:45;7.75;;;6.07;;
55362;SDS011;41244;49.242;9.060;2023-06-22T09:17:12;6.63;;;5.95;;
55362;SDS011;41244;49.242;9.060;2023-06-22T09:19:38;8.65;;;6.53;;
55362;SDS011;41244;49.242;9.060;2023-06-22T09:22:04;8.50;;;6.28;;
55362;SDS011;41244;49.242;9.060;2023-06-22T09:24:34;8.48;;;5.80;;
55362;SDS011;41244;49.242;9.060;2023-06-22T09:26:59;9.35;;;5.85;;
55362;SDS011;41244;49.242;9.060;2023-06-22T09:29:25;11.63;;;6.32;;
55362;SDS011;41244;49.242;9.060;2023-06-22T09:31:51;7.65;;;5.47;;
55362;SDS011;41244;49.242;9.060;2023-06-22T09:34:18;7.30;;;6.25;;
55362;SDS011;41244;49.242;9.060;2023-06-22T09:36:45;8.88;;;6.03;;
55362;SDS011;41244;49.242;9.060;2023-06-22T09:39:12;9.45;;;5.85;;
55362;SDS011;41244;49.242;9.060;2023-06-22T09:41:37;9.50;;;5.72;;
55362;SDS011;41244;49.242;9.060;2023-06-22T09:44:03;12.65;;;6.32;;
55362;SDS011;41244;49.242;9.060;2023-06-22T09:46:29;10.80;;;6.35;;
55362;SDS011;41244;49.242;9.060;2023-06-22T09:48:55;8.68;;;6.72;;
55362;SDS011;41244;49.242;9.060;2023-06-22T09:51:20;8.18;;;6.55;;
55362;SDS011;41244;49.242;9.060;2023-06-22T09:53:48;8.90;;;6.30;;
55362;SDS011;41244;49.242;9.060;2023-06-22T09:56:19;7.85;;;6.30;;
55362;SDS011;41244;49.242;9.060;2023-06-22T09:58:45;7.03;;;5.65;;
55362;SDS011;41244;49.242;9.060;2023-06-22T10:01:11;10.45;;;6.03;;
55362;SDS011;41244;49.242;9.060;2023-06-22T10:03:40;10.88;;;5.88;;
55362;SDS011;41244;49.242;9.060;2023-06-22T10:06:06;9.52;;;6.00;;
55362;SDS011;41244;49.242;9.060;2023-06-22T10:08:33;8.43;;;5.78;;
55362;SDS011;41244;49.242;9.060;2023-06-22T10:10:59;8.40;;;6.13;;
55362;SDS011;41244;49.242;9.060;2023-06-22T10:13:25;9.00;;;6.18;;
55362;SDS011;41244;49.242;9.060;2023-06-22T10:15:51;8.18;;;5.97;;
55362;SDS011;41244;49.242;9.060;2023-06-22T10:18:18;10.80;;;6.25;;
55362;SDS011;41244;49.242;9.060;2023-06-22T10:20:45;10.48;;;6.32;;
55362;SDS011;41244;49.242;9.060;2023-06-22T10:23:18;8.98;;;6.00;;
55362;SDS011;41244;49.242;9.060;2023-06-22T10:25:44;8.77;;;6.10;;
55362;SDS011;41244;49.242;9.060;2023-06-22T10:28:10;7.25;;;5.55;;
55362;SDS011;41244;49.242;9.060;2023-06-22T10:30:37;8.88;;;6.10;;
55362;SDS011;41244;49.242;9.060;2023-06-22T10:33:06;9.60;;;6.25;;
55362;SDS011;41244;49.242;9.060;2023-06-22T10:35:36;10.65;;;6.25;;
55362;SDS011;41244;49.242;9.060;2023-06-22T10:38:05;11.13;;;7.53;;
55362;SDS011;41244;49.242;9.060;2023-06-22T10:40:31;12.82;;;6.00;;
55362;SDS011;41244;49.242;9.060;2023-06-22T10:42:57;16.40;;;6.35;;
55362;SDS011;41244;49.242;9.060;2023-06-22T10:45:23;7.85;;;6.25;;
55362;SDS011;41244;49.242;9.060;2023-06-22T10:47:49;10.45;;;5.85;;
55362;SDS011;41244;49.242;9.060;2023-06-22T10:50:14;8.32;;;5.53;;
55362;SDS011;41244;49.242;9.060;2023-06-22T10:52:41;8.10;;;5.93;;
55362;SDS011;41244;49.242;9.060;2023-06-22T10:55:07;8.63;;;6.22;;
55362;SDS011;41244;49.242;9.060;2023-06-22T10:57:34;12.20;;;9.18;;
55362;SDS011;41244;49.242;9.060;2023-06-22T10:59:59;19.08;;;15.60;;
55362;SDS011;41244;49.242;9.060;2023-06-22T11:02:25;14.75;;;10.02;;
55362;SDS011;41244;49.242;9.060;2023-06-22T11:04:53;10.95;;;6.40;;
55362;SDS011;41244;49.242;9.060;2023-06-22T11:07:19;16.98;;;9.10;;
55362;SDS011;41244;49.242;9.060;2023-06-22T11:09:45;13.20;;;6.45;;
55362;SDS011;41244;49.242;9.060;2023-06-22T11:12:10;9.93;;;7.35;;
55362;SDS011;41244;49.242;9.060;2023-06-22T11:14:36;10.73;;;6.10;;
55362;SDS011;41244;49.242;9.060;2023-06-22T11:17:03;10.48;;;6.60;;
55362;SDS011;41244;49.242;9.060;2023-06-22T11:19:29;6.97;;;5.90;;
55362;SDS011;41244;49.242;9.060;2023-06-22T11:21:55;11.52;;;5.80;;
55362;SDS011;41244;49.242;9.060;2023-06-22T11:24:21;23.30;;;11.52;;
55362;SDS011;41244;49.242;9.060;2023-06-22T11:26:47;14.68;;;8.18;;
55362;SDS011;41244;49.242;9.060;2023-06-22T11:29:13;8.57;;;6.65;;
55362;SDS011;41244;49.242;9.060;2023-06-22T11:31:38;12.10;;;6.68;;
55362;SDS011;41244;49.242;9.060;2023-06-22T11:34:04;14.15;;;6.60;;
55362;SDS011;41244;49.242;9.060;2023-06-22T11:36:30;7.90;;;5.78;;
55362;SDS011;41244;49.242;9.060;2023-06-22T11:38:58;9.23;;;6.15;;
55362;SDS011;41244;49.242;9.060;2023-06-22T11:41:24;7.05;;;5.47;;
55362;SDS011;41244;49.242;9.060;2023-06-22T11:43:49;10.75;;;7.18;;
55362;SDS011;41244;49.242;9.060;2023-06-22T11:46:15;10.95;;;9.18;;
55362;SDS011;41244;49.242;9.060;2023-06-22T11:48:41;9.57;;;6.95;;
55362;SDS011;41244;49.242;9.060;2023-06-22T11:51:07;8.85;;;6.63;;
55362;SDS011;41244;49.242;9.060;2023-06-22T11:53:33;8.98;;;6.20;;
55362;SDS011;41244;49.242;9.060;2023-06-22T11:55:59;11.60;;;6.20;;
55362;SDS011;41244;49.242;9.060;2023-06-22T11:58:26;9.70;;;5.78;;
55362;SDS011;41244;49.242;9.060;2023-06-22T12:00:52;10.23;;;6.50;;
55362;SDS011;41244;49.242;9.060;2023-06-22T12:03:18;12.38;;;6.32;;
55362;SDS011;41244;49.242;9.060;2023-06-22T12:05:44;11.48;;;6.20;;
55362;SDS011;41244;49.242;9.060;2023-06-22T12:08:10;12.52;;;7.25;;
55362;SDS011;41244;49.242;9.060;2023-06-22T12:10:37;10.07;;;6.20;;
55362;SDS011;41244;49.242;9.060;2023-06-22T12:13:02;9.48;;;6.18;;
55362;SDS011;41244;49.242;9.060;2023-06-22T12:15:28;11.90;;;6.15;;
55362;SDS011;41244;49.242;9.060;2023-06-22T12:17:54;9.55;;;6.55;;
55362;SDS011;41244;49.242;9.060;2023-06-22T12:20:20;12.27;;;6.65;;
55362;SDS011;41244;49.242;9.060;2023-06-22T12:22:45;8.38;;;6.13;;
55362;SDS011;41244;49.242;9.060;2023-06-22T12:25:12;10.82;;;6.60;;
55362;SDS011;41244;49.242;9.060;2023-06-22T12:27:38;8.48;;;6.10;;
55362;SDS011;41244;49.242;9.060;2023-06-22T12:30:04;10.13;;;6.10;;
55362;SDS011;41244;49.242;9.060;2023-06-22T12:32:30;10.95;;;6.50;;
55362;SDS011;41244;49.242;9.060;2023-06-22T12:34:56;9.95;;;6.20;;
55362;SDS011;41244;49.242;9.060;2023-06-22T12:37:23;11.00;;;7.03;;
55362;SDS011;41244;49.242;9.060;2023-06-22T12:39:49;11.77;;;6.65;;
55362;SDS011;41244;49.242;9.060;2023-06-22T12:42:15;11.82;;;6.72;;
55362;SDS011;41244;49.242;9.060;2023-06-22T12:44:41;11.88;;;7.60;;
55362;SDS011;41244;49.242;9.060;2023-06-22T12:47:07;9.00;;;6.80;;
55362;SDS011;41244;49.242;9.060;2023-06-22T12:49:34;9.45;;;6.40;;
55362;SDS011;41244;49.242;9.060;2023-06-22T12:52:02;10.35;;;6.60;;
55362;SDS011;41244;49.242;9.060;2023-06-22T12:54:38;11.73;;;6.10;;
55362;SDS011;41244;49.242;9.060;2023-06-22T12:57:04;9.98;;;6.50;;
55362;SDS011;41244;49.242;9.060;2023-06-22T12:59:30;12.32;;;6.95;;
55362;SDS011;41244;49.242;9.060;2023-06-22T13:01:56;9.90;;;6.78;;
55362;SDS011;41244;49.242;9.060;2023-06-22T13:04:22;8.27;;;6.03;;
55362;SDS011;41244;49.242;9.060;2023-06-22T13:06:48;10.15;;;6.70;;
55362;SDS011;41244;49.242;9.060;2023-06-22T13:09:14;11.52;;;6.40;;
55362;SDS011;41244;49.242;9.060;2023-06-22T13:11:41;8.90;;;6.32;;
55362;SDS011;41244;49.242;9.060;2023-06-22T13:14:07;10.10;;;8.93;;
55362;SDS011;41244;49.242;9.060;2023-06-22T13:16:33;11.93;;;7.10;;
55362;SDS011;41244;49.242;9.060;2023-06-22T13:18:59;12.02;;;6.88;;
55362;SDS011;41244;49.242;9.060;2023-06-22T13:21:25;11.27;;;6.28;;
55362;SDS011;41244;49.242;9.060;2023-06-22T13:23:51;9.35;;;6.20;;
55362;SDS011;41244;49.242;9.060;2023-06-22T13:26:16;14.60;;;11.20;;
55362;SDS011;41244;49.242;9.060;2023-06-22T13:28:42;14.55;;;9.43;;
55362;SDS011;41244;49.242;9.060;2023-06-22T13:31:08;12.27;;;6.50;;
55362;SDS011;41244;49.242;9.060;2023-06-22T13:33:34;12.52;;;7.50;;
55362;SDS011;41244;49.242;9.060;2023-06-22T13:36:00;10.55;;;6.63;;
55362;SDS011;41244;49.242;9.060;2023-06-22T13:38:28;8.63;;;6.50;;
55362;SDS011;41244;49.242;9.060;2023-06-22T13:40:55;9.35;;;6.88;;
55362;SDS011;41244;49.242;9.060;2023-06-22T13:43:23;9.95;;;6.68;;
55362;SDS011;41244;49.242;9.060;2023-06-22T13:45:49;14.30;;;6.78;;
55362;SDS011;41244;49.242;9.060;2023-06-22T13:48:15;10.02;;;6.35;;
55362;SDS011;41244;49.242;9.060;2023-06-22T13:50:40;10.45;;;6.18;;
55362;SDS011;41244;49.242;9.060;2023-06-22T13:53:06;10.98;;;7.10;;
55362;SDS011;41244;49.242;9.060;2023-06-22T13:55:32;12.13;;;7.07;;
55362;SDS011;41244;49.242;9.060;2023-06-22T13:57:58;9.43;;;7.25;;
55362;SDS011;41244;49.242;9.060;2023-06-22T14:00:23;12.30;;;6.95;;
55362;SDS011;41244;49.242;9.060;2023-06-22T14:02:49;12.32;;;6.72;;
55362;SDS011;41244;49.242;9.060;2023-06-22T14:05:16;9.02;;;6.20;;
55362;SDS011;41244;49.242;9.060;2023-06-22T14:07:42;9.40;;;6.80;;
55362;SDS011;41244;49.242;9.060;2023-06-22T14:10:07;11.50;;;6.70;;
55362;SDS011;41244;49.242;9.060;2023-06-22T14:12:34;12.13;;;6.78;;
55362;SDS011;41244;49.242;9.060;2023-06-22T14:14:59;9.77;;;6.78;;
55362;SDS011;41244;49.242;9.060;2023-06-22T14:17:25;10.70;;;6.90;;
55362;SDS011;41244;49.242;9.060;2023-06-22T14:19:52;14.75;;;6.45;;
55362;SDS011;41244;49.242;9.060;2023-06-22T14:22:18;8.75;;;6.70;;
55362;SDS011;41244;49.242;9.060;2023-06-22T14:24:45;12.18;;;6.70;;
55362;SDS011;41244;49.242;9.060;2023-06-22T14:27:12;11.50;;;6.97;;
55362;SDS011;41244;49.242;9.060;2023-06-22T14:29:38;9.85;;;6.45;;
55362;SDS011;41244;49.242;9.060;2023-06-22T14:32:04;11.63;;;6.82;;
55362;SDS011;41244;49.242;9.060;2023-06-22T14:34:31;11.93;;;6.40;;
55362;SDS011;41244;49.242;9.060;2023-06-22T14:37:01;11.25;;;6.75;;
55362;SDS011;41244;49.242;9.060;2023-06-22T14:39:28;15.45;;;6.55;;
55362;SDS011;41244;49.242;9.060;2023-06-22T14:41:53;10.40;;;6.32;;
55362;SDS011;41244;49.242;9.060;2023-06-22T14:44:19;10.05;;;6.50;;
55362;SDS011;41244;49.242;9.060;2023-06-22T14:46:45;13.82;;;6.57;;
55362;SDS011;41244;49.242;9.060;2023-06-22T14:49:11;10.77;;;5.82;;
55362;SDS011;41244;49.242;9.060;2023-06-22T14:51:37;10.85;;;7.40;;